aviador You're here:

KSXS Decoded Metar

FT RUCKER/SHELL in AL, USA
Report Time2018-05-26 07:58:00
UTC Time2018-05-26 08:07:13
Flight Rules vfr VFR
WindCalm
Visibility9999 m
Phenomena:N/A
Clouds:N/A
CeilingNone
Temp20°C (ISA +6)
Dew Point20°C (100% RH)
QNH1013 hPa
Density Alt1,388 ft
Elevation400 ft
Report Wrong Elevation
Raw Report
KSXS 260758Z AUTO 00000KT 10SM CLR 20/20 A2991 RMK AO2 SLP127
T02030200=

Extra information for KSXS:More info

Metar Taf Metar & Taf Last 4 Metars F.Rules Stats Wind Profile Meteogram Temp Stats Airport Information Weather charts Add Link Nearby VenuesMetar ALERT Operation Metar Decoded Social comments

AIRNAV info for KSXS